CheckWX is a tool to help pilots better visualize weather data.  It is not intended as a substitute for an official pre-flight weather briefing.

16:08:15 UTC

KPEX METAR
Paynesville Municipal Airport
Paynesville, Minnesota, USA
Current

13 mins ago

KPEX 171555Z AUTO 18009KT 10SM CLR 24/18 A2983 RMK AO2 T02360183
Observed
Aug-17 @ 15:55 UTC
Wind
  • 180° at 9 KTS
Visibility
10 SM
Flight Rules
VFR
Cloud Levels
  • Clear skies
Temperature
24°C / 75°F
Dewpoint
18°C / 64°F
Humidity
69%
Altimeter
29.83" Hg
Pressure
1010.12 hPa
Previous

52 mins ago

KPEX 171516Z AUTO 18008KT 10SM CLR 23/18 A2983 RMK AO2 T02270177
Observed
Aug-17 @ 15:16 UTC
Wind
  • 180° at 8 KTS
Visibility
10 SM
Flight Rules
VFR
Cloud Levels
  • Clear skies
Temperature
23°C / 73°F
Dewpoint
18°C / 64°F
Humidity
74%
Altimeter
29.83" Hg
Pressure
1010.12 hPa
Previous

1 hour ago

KPEX 171455Z AUTO 19010G16KT 10SM CLR 22/18 A2983 RMK AO2 T02220176
Observed
Aug-17 @ 14:55 UTC
Wind
  • 190° at 10 KTS
  • Gusting to 16 KTS
Visibility
10 SM
Flight Rules
VFR
Cloud Levels
  • Clear skies
Temperature
22°C / 72°F
Dewpoint
18°C / 64°F
Humidity
78%
Altimeter
29.83" Hg
Pressure
1010.12 hPa